createdAt,value
2018-11-22T00:01:50.233Z,84.80
2018-11-22T00:04:17.543Z,84.30
2018-11-22T00:06:44.807Z,83.90
2018-11-22T00:09:12.097Z,85.50
2018-11-22T00:11:40.073Z,83.80
2018-11-22T00:14:07.979Z,84.40
2018-11-22T00:16:35.746Z,82.80
2018-11-22T00:19:03.273Z,82.90
2018-11-22T00:21:31.116Z,83.50
2018-11-22T00:23:58.994Z,83.30
2018-11-22T00:26:27.768Z,84.10
2018-11-22T00:28:55.258Z,84.30
2018-11-22T00:31:22.866Z,83.60
2018-11-22T00:33:50.360Z,84.80
2018-11-22T00:36:17.868Z,84.10
2018-11-22T00:38:45.716Z,85.20
2018-11-22T00:41:13.642Z,84.50
2018-11-22T00:43:41.110Z,84.00
2018-11-22T00:46:09.255Z,84.00
2018-11-22T00:48:37.017Z,83.40
2018-11-22T00:51:04.558Z,84.70
2018-11-22T00:53:32.384Z,84.60
2018-11-22T00:56:00.255Z,85.10
2018-11-22T00:58:28.088Z,85.40
2018-11-22T01:00:55.306Z,85.10
2018-11-22T01:03:23.100Z,84.30
2018-11-22T01:05:50.315Z,85.20
2018-11-22T01:08:18.102Z,84.10
2018-11-22T01:10:45.447Z,86.40
2018-11-22T01:13:13.571Z,85.80
2018-11-22T01:15:41.159Z,84.60
2018-11-22T01:18:08.474Z,84.60
2018-11-22T01:20:35.955Z,85.10
2018-11-22T01:23:03.749Z,86.10
2018-11-22T01:25:31.854Z,87.30
2018-11-22T01:27:59.090Z,86.20
2018-11-22T01:30:26.884Z,84.10
2018-11-22T01:32:55.315Z,83.70
2018-11-22T01:35:23.472Z,85.10
2018-11-22T01:37:51.333Z,86.30
2018-11-22T01:40:20.226Z,85.90
2018-11-22T01:42:48.096Z,86.80
2018-11-22T01:45:16.760Z,86.90
2018-11-22T01:47:44.245Z,87.40
2018-11-22T01:50:13.102Z,86.10
2018-11-22T01:52:40.650Z,86.00
2018-11-22T01:55:09.921Z,86.70
2018-11-22T01:57:38.186Z,86.40
2018-11-22T02:00:08.667Z,85.70
2018-11-22T02:02:36.148Z,85.40
2018-11-22T02:05:04.396Z,84.70
2018-11-22T02:07:31.905Z,86.80
2018-11-22T02:09:59.115Z,86.70
2018-11-22T02:12:26.901Z,86.50
2018-11-22T02:14:55.032Z,87.40
2018-11-22T02:17:22.545Z,88.10
2018-11-22T02:19:50.915Z,89.10
2018-11-22T02:22:18.506Z,88.50
2018-11-22T02:24:45.990Z,88.50
2018-11-22T02:27:13.782Z,88.70
2018-11-22T02:29:41.279Z,89.20
2018-11-22T02:32:08.765Z,90.10
2018-11-22T02:34:35.996Z,89.60
2018-11-22T02:37:03.475Z,88.70
2018-11-22T02:39:31.357Z,90.10
2018-11-22T02:41:58.830Z,90.50
2018-11-22T02:44:26.637Z,90.50
2018-11-22T02:46:54.122Z,90.80
2018-11-22T02:49:22.170Z,90.90
2018-11-22T02:51:49.778Z,90.90
2018-11-22T02:54:17.621Z,90.90
2018-11-22T02:56:45.417Z,91.40
2018-11-22T02:59:12.605Z,91.50
2018-11-22T03:01:40.177Z,92.10
2018-11-22T03:04:07.653Z,92.60
2018-11-22T03:06:35.160Z,92.00
2018-11-22T03:09:03.798Z,91.70
2018-11-22T03:11:31.716Z,91.60
2018-11-22T03:13:59.526Z,92.10
2018-11-22T03:16:27.044Z,92.70
2018-11-22T03:18:55.067Z,92.60
2018-11-22T03:21:22.595Z,92.40
2018-11-22T03:23:50.372Z,92.30
2018-11-22T03:26:17.840Z,92.20
2018-11-22T03:28:45.069Z,92.20
2018-11-22T03:31:12.571Z,92.40
2018-11-22T03:33:40.089Z,92.70
2018-11-22T03:36:07.307Z,92.70
2018-11-22T03:38:35.374Z,93.10
2018-11-22T03:41:02.870Z,92.60
2018-11-22T03:43:30.098Z,92.70
2018-11-22T03:45:58.155Z,92.90
2018-11-22T03:48:26.243Z,92.70
2018-11-22T03:50:53.934Z,92.70
2018-11-22T03:53:21.138Z,92.40
2018-11-22T03:55:49.036Z,93.10
2018-11-22T03:58:16.856Z,92.30
2018-11-22T04:00:44.685Z,92.00
2018-11-22T04:03:12.194Z,92.80
2018-11-22T04:05:39.700Z,93.10
2018-11-22T04:08:07.212Z,93.40
2018-11-22T04:10:34.736Z,93.70
2018-11-22T04:13:02.237Z,94.00
2018-11-22T04:15:30.006Z,94.50
2018-11-22T04:17:57.376Z,94.40
2018-11-22T04:20:26.393Z,94.50
2018-11-22T04:22:53.894Z,94.20
2018-11-22T04:25:22.090Z,94.30
2018-11-22T04:27:50.487Z,93.90
2018-11-22T04:30:32.092Z,93.70
2018-11-22T04:32:59.899Z,93.90
2018-11-22T04:35:27.324Z,93.70
2018-11-22T04:37:55.220Z,93.60
2018-11-22T04:40:24.106Z,93.90
2018-11-22T04:42:52.544Z,94.90
2018-11-22T04:45:20.702Z,94.90
2018-11-22T04:47:49.949Z,94.00
2018-11-22T04:50:18.872Z,94.00
2018-11-22T04:52:46.684Z,94.00
2018-11-22T04:55:14.242Z,93.80
2018-11-22T04:57:41.802Z,94.30
2018-11-22T05:00:10.999Z,94.10
2018-11-22T05:02:38.801Z,94.60
2018-11-22T05:05:07.485Z,94.40
2018-11-22T05:07:35.035Z,94.40
2018-11-22T05:10:03.121Z,94.50
2018-11-22T05:12:30.618Z,94.70
2018-11-22T05:14:58.495Z,93.90
2018-11-22T05:17:26.291Z,94.70
2018-11-22T05:19:53.501Z,94.80
2018-11-22T05:22:21.019Z,94.50
2018-11-22T05:24:48.809Z,94.30
2018-11-22T05:27:16.654Z,94.70
2018-11-22T05:29:45.414Z,95.20
2018-11-22T05:32:12.893Z,95.10
2018-11-22T05:34:40.705Z,95.20
2018-11-22T05:37:09.005Z,95.60
2018-11-22T05:39:36.803Z,95.60
2018-11-22T05:42:04.743Z,96.30
2018-11-22T05:44:31.975Z,96.10
2018-11-22T05:47:02.633Z,95.90
2018-11-22T05:49:27.328Z,96.00
2018-11-22T05:51:55.395Z,96.10
2018-11-22T05:54:22.618Z,96.70
2018-11-22T05:56:50.410Z,97.40
2018-11-22T05:59:17.942Z,97.50
2018-11-22T06:01:46.039Z,97.30
2018-11-22T06:04:13.807Z,97.80
2018-11-22T06:06:41.598Z,97.70
2018-11-22T06:09:10.127Z,97.20
2018-11-22T06:11:37.961Z,97.40
2018-11-22T06:14:05.801Z,98.00
2018-11-22T06:16:33.291Z,97.90
2018-11-22T06:19:00.881Z,97.90
2018-11-22T06:21:28.076Z,97.60
2018-11-22T06:23:55.667Z,98.40
2018-11-22T06:26:23.453Z,98.00
2018-11-22T06:28:50.987Z,97.80
2018-11-22T06:31:18.260Z,98.50
2018-11-22T06:33:46.065Z,98.80
2018-11-22T06:36:13.593Z,98.40
2018-11-22T06:38:41.076Z,98.20
2018-11-22T06:41:08.328Z,98.00
2018-11-22T06:43:36.083Z,98.00
2018-11-22T06:46:04.017Z,98.30
2018-11-22T06:48:31.607Z,97.90
2018-11-22T06:50:59.504Z,99.20
2018-11-22T06:53:27.045Z,99.60
2018-11-22T06:55:54.298Z,98.00
2018-11-22T06:58:21.788Z,96.90
2018-11-22T07:00:49.885Z,97.80
2018-11-22T07:03:17.399Z,98.40
2018-11-22T07:05:45.258Z,97.40
2018-11-22T07:08:13.127Z,97.90
2018-11-22T07:10:40.716Z,98.20
2018-11-22T07:13:08.313Z,98.50
2018-11-22T07:15:36.370Z,98.10
2018-11-22T07:18:03.967Z,98.30
2018-11-22T07:20:32.361Z,98.10
2018-11-22T07:23:01.629Z,97.10
2018-11-22T07:25:29.254Z,97.80
2018-11-22T07:27:56.805Z,97.60
2018-11-22T07:30:28.559Z,97.70
2018-11-22T07:32:56.294Z,98.10
2018-11-22T07:35:25.126Z,96.90
2018-11-22T07:37:52.924Z,97.50
2018-11-22T07:40:21.937Z,97.00
2018-11-22T12:16:59.086Z,67.70
2018-11-22T12:19:27.079Z,67.60
2018-11-22T12:21:54.777Z,66.90
2018-11-22T12:24:22.506Z,66.70
2018-11-22T12:26:50.225Z,66.70
2018-11-22T12:29:17.959Z,66.90
2018-11-22T12:31:45.718Z,67.60
2018-11-22T12:34:15.053Z,67.40
2018-11-22T12:37:20.721Z,68.90
2018-11-22T12:39:48.390Z,69.20
2018-11-22T12:42:16.114Z,69.60
2018-11-22T12:44:43.853Z,70.00
2018-11-22T12:47:11.554Z,67.80
2018-11-22T12:49:39.320Z,69.10
2018-11-22T12:52:07.041Z,67.90
2018-11-22T12:54:35.411Z,66.60
2018-11-22T12:57:03.178Z,69.20
2018-11-22T12:59:30.863Z,68.30
2018-11-22T13:01:58.667Z,68.30
2018-11-22T13:04:26.385Z,68.00
2018-11-22T13:06:54.110Z,67.10
2018-11-22T13:09:22.871Z,67.30
2018-11-22T13:11:49.601Z,66.60
2018-11-22T13:14:17.290Z,67.60
2018-11-22T13:16:45.006Z,67.20
2018-11-22T13:19:12.715Z,67.90
2018-11-22T13:21:40.516Z,68.80
2018-11-22T13:24:08.241Z,70.00
2018-11-22T13:26:35.974Z,68.50
2018-11-22T13:29:03.750Z,66.50
2018-11-22T13:31:31.505Z,67.60
2018-11-22T13:33:59.226Z,66.70
2018-11-22T13:36:27.026Z,66.50
2018-11-22T13:38:54.742Z,66.10
2018-11-22T13:41:22.459Z,65.60
2018-11-22T13:43:50.198Z,65.60
2018-11-22T13:46:17.957Z,65.10
2018-11-22T13:48:45.682Z,64.40
2018-11-22T13:51:13.394Z,63.90
2018-11-22T13:53:41.195Z,64.10
2018-11-22T13:56:08.941Z,61.40
2018-11-22T13:58:36.782Z,58.70
2018-11-22T14:01:04.659Z,58.00
2018-11-22T14:03:32.398Z,57.70
2018-11-22T14:06:00.107Z,58.50
2018-11-22T14:08:27.845Z,59.70
2018-11-22T14:10:58.533Z,59.00
2018-11-22T14:13:23.330Z,59.10
2018-11-22T14:15:51.053Z,57.90
2018-11-22T14:18:18.862Z,60.90
2018-11-22T14:20:46.594Z,61.90
2018-11-22T14:23:14.330Z,64.00
2018-11-22T14:25:45.071Z,63.40
2018-11-22T14:28:09.878Z,63.20
2018-11-22T14:30:37.577Z,63.80
2018-11-22T14:33:05.367Z,64.00
2018-11-22T14:35:33.126Z,64.90
2018-11-22T14:38:00.849Z,63.30
2018-11-22T14:40:30.014Z,62.70
2018-11-22T14:42:57.818Z,62.10
2018-11-22T14:45:26.258Z,60.00
2018-11-22T14:47:55.239Z,59.90
2018-11-22T14:50:28.859Z,61.40
2018-11-22T14:53:06.566Z,61.00
2018-11-22T14:55:34.332Z,60.60
2018-11-22T14:58:02.062Z,61.20
2018-11-22T15:00:29.810Z,59.20
2018-11-22T15:02:57.533Z,58.70
2018-11-22T15:05:25.268Z,59.70
2018-11-22T15:07:53.246Z,59.10
2018-11-22T15:10:21.023Z,60.20
2018-11-22T15:12:49.230Z,62.40
2018-11-22T15:15:18.625Z,64.50
2018-11-22T15:17:46.406Z,65.90
2018-11-22T15:20:16.613Z,67.10
2018-11-22T15:22:45.239Z,68.60
2018-11-22T15:25:17.463Z,71.30
2018-11-22T15:27:45.476Z,72.50
2018-11-22T15:30:15.667Z,73.20
2018-11-22T15:32:43.406Z,73.90
2018-11-22T15:35:17.802Z,75.10
2018-11-22T15:37:45.972Z,75.90
2018-11-22T15:40:16.889Z,76.60
2018-11-22T15:42:45.602Z,76.80
2018-11-22T15:45:14.689Z,76.80
2018-11-22T15:47:42.773Z,77.60
2018-11-22T15:50:20.415Z,78.20
2018-11-22T15:52:48.190Z,78.50
2018-11-22T15:55:20.838Z,79.50
2018-11-22T15:57:45.706Z,79.80
2018-11-22T16:00:16.157Z,80.10
2018-11-22T16:02:44.810Z,80.60
2018-11-22T16:05:13.085Z,79.90
2018-11-22T16:07:41.550Z,80.10
2018-11-22T16:10:12.418Z,80.40
2018-11-22T16:12:40.134Z,81.60
2018-11-22T16:15:13.467Z,81.60
2018-11-22T16:17:41.740Z,82.80
2018-11-22T16:20:09.698Z,83.60
2018-11-22T16:22:37.573Z,83.80
2018-11-22T16:25:06.989Z,83.70
2018-11-22T16:27:34.787Z,84.30
2018-11-22T16:30:02.798Z,84.50
2018-11-22T16:32:30.562Z,84.10
2018-11-22T16:34:58.283Z,84.60
2018-11-22T16:37:26.007Z,85.90
2018-11-22T16:39:54.255Z,85.70
2018-11-22T16:42:21.530Z,85.90
2018-11-22T16:44:49.303Z,86.10
2018-11-22T16:47:17.150Z,86.50
2018-11-22T16:49:44.944Z,86.50
2018-11-22T16:52:12.748Z,86.30
2018-11-22T16:54:40.470Z,85.50
2018-11-22T16:57:08.231Z,85.90
2018-11-22T16:59:35.950Z,86.80
2018-11-22T17:02:03.730Z,87.00
2018-11-22T17:04:31.450Z,88.10
2018-11-22T17:06:59.222Z,88.00
2018-11-22T17:09:27.070Z,89.40
2018-11-22T17:11:54.841Z,88.80
2018-11-22T17:14:22.583Z,89.30
2018-11-22T17:16:50.345Z,89.10
2018-11-22T17:19:18.134Z,89.40
2018-11-22T17:21:45.909Z,89.50
2018-11-22T17:24:13.667Z,89.90
2018-11-22T17:26:41.398Z,90.00
2018-11-22T17:29:09.153Z,90.10
2018-11-22T17:31:36.958Z,90.20
2018-11-22T17:34:05.071Z,90.20
2018-11-22T17:36:32.842Z,90.70
2018-11-22T17:39:00.602Z,90.80
2018-11-22T17:41:28.314Z,90.40
2018-11-22T17:43:56.127Z,90.60
2018-11-22T17:46:23.860Z,90.80
2018-11-22T17:48:51.862Z,90.70
2018-11-22T17:51:19.619Z,91.20
2018-11-22T17:53:47.367Z,91.50
2018-11-22T17:56:15.086Z,91.30
2018-11-22T17:58:42.868Z,91.60
2018-11-22T18:01:14.548Z,92.00
2018-11-22T18:03:38.442Z,91.90
2018-11-22T18:06:06.226Z,92.40
2018-11-22T18:08:33.965Z,92.30
2018-11-22T18:11:01.707Z,91.90
2018-11-22T18:13:29.483Z,92.90
2018-11-22T18:15:58.240Z,92.30
2018-11-22T18:18:26.597Z,92.40
2018-11-22T18:20:54.366Z,91.90
2018-11-22T18:23:22.104Z,92.50
2018-11-22T18:25:49.847Z,92.70
2018-11-22T18:28:17.622Z,92.90
2018-11-22T18:30:45.408Z,92.90
2018-11-22T18:33:13.182Z,93.50
2018-11-22T18:35:40.939Z,93.20
2018-11-22T18:38:08.655Z,93.80
2018-11-22T18:40:37.930Z,93.60
2018-11-22T18:43:05.785Z,93.90
2018-11-22T18:45:34.906Z,94.10
2018-11-22T18:48:03.675Z,94.10
2018-11-22T18:50:32.490Z,93.40
2018-11-22T18:53:00.249Z,94.10
2018-11-22T18:55:28.050Z,93.50
2018-11-22T18:57:55.779Z,94.50
2018-11-22T19:00:31.567Z,94.10
2018-11-22T19:03:01.033Z,94.50
2018-11-22T19:05:28.858Z,94.20
2018-11-22T19:07:57.375Z,94.40
2018-11-22T19:10:26.327Z,94.80
2018-11-22T19:12:55.341Z,94.40
2018-11-22T19:15:24.689Z,94.00
2018-11-22T19:17:52.829Z,94.80
2018-11-22T19:20:23.170Z,94.90
2018-11-22T19:22:51.621Z,94.80
2018-11-22T19:25:19.984Z,94.40
2018-11-22T19:27:47.981Z,94.90
2018-11-22T19:30:17.997Z,94.80
2018-11-22T19:32:46.734Z,95.30
2018-11-22T19:35:15.571Z,95.00
2018-11-22T19:37:43.665Z,95.10
2018-11-22T19:40:15.918Z,95.10
2018-11-22T19:42:44.723Z,94.60
2018-11-22T19:45:14.099Z,94.90
2018-11-22T19:47:41.884Z,94.40
2018-11-22T19:50:12.009Z,94.20
2018-11-22T19:52:39.733Z,93.70
2018-11-22T19:55:10.088Z,93.90
2018-11-22T19:57:37.846Z,94.10
2018-11-22T20:00:08.007Z,93.60
2018-11-22T20:02:35.745Z,94.20
2018-11-22T20:05:03.722Z,93.70
2018-11-22T20:07:31.474Z,93.50
2018-11-22T20:09:59.198Z,93.90
2018-11-22T20:12:26.941Z,93.60
2018-11-22T20:14:54.678Z,93.90
2018-11-22T20:17:22.402Z,94.40
2018-11-22T20:19:50.221Z,93.90
2018-11-22T20:22:17.967Z,94.00
2018-11-22T20:24:45.726Z,93.70
2018-11-22T20:27:13.499Z,93.90
2018-11-22T20:29:41.238Z,93.60
2018-11-22T20:32:08.983Z,93.80
2018-11-22T20:34:36.750Z,93.60
2018-11-22T20:37:04.560Z,93.60
2018-11-22T20:39:32.315Z,94.10
2018-11-22T20:42:00.066Z,94.30
2018-11-22T20:44:27.838Z,93.80
2018-11-22T20:46:55.592Z,94.60
2018-11-22T20:49:23.433Z,94.60
2018-11-22T20:51:51.189Z,94.80
2018-11-22T20:54:18.937Z,95.00
2018-11-22T20:56:46.677Z,95.20
2018-11-22T20:59:14.430Z,95.20
2018-11-22T21:01:42.164Z,95.20
2018-11-22T21:04:09.910Z,96.00
2018-11-22T21:06:37.618Z,96.20
2018-11-22T21:09:08.688Z,95.90
2018-11-22T21:11:43.201Z,96.10
2018-11-22T21:14:05.643Z,96.50
2018-11-22T21:16:33.373Z,96.10
2018-11-22T21:19:01.127Z,97.10
2018-11-22T21:21:28.978Z,97.30
2018-11-22T21:23:56.726Z,98.30
2018-11-22T21:26:24.656Z,97.40
2018-11-22T21:28:52.742Z,97.60
2018-11-22T21:31:20.486Z,97.50
2018-11-22T21:33:48.971Z,97.90
2018-11-22T21:36:16.807Z,97.70
2018-11-22T21:38:44.770Z,98.10
2018-11-22T21:41:12.523Z,97.90
2018-11-22T21:43:40.451Z,98.10
2018-11-22T21:46:08.230Z,97.70
2018-11-22T21:48:35.958Z,98.70
2018-11-22T21:51:03.742Z,98.30
2018-11-22T21:53:31.891Z,98.50
2018-11-22T21:55:59.674Z,97.70
2018-11-22T21:58:27.431Z,97.90
2018-11-22T22:00:55.190Z,97.80
2018-11-22T22:03:22.954Z,98.10
2018-11-22T22:05:50.813Z,98.70
2018-11-22T22:08:18.541Z,98.80
2018-11-22T22:10:46.299Z,98.20
2018-11-22T22:13:14.059Z,97.70
2018-11-22T22:15:41.814Z,97.90
2018-11-22T22:18:09.650Z,98.40
2018-11-22T22:20:37.654Z,97.90
2018-11-22T22:23:05.487Z,98.00
2018-11-22T22:25:33.265Z,97.90
2018-11-22T22:28:01.418Z,97.30
2018-11-22T22:30:30.603Z,98.20
2018-11-22T22:33:01.005Z,98.20
2018-11-22T22:35:28.762Z,97.90
2018-11-22T22:37:56.474Z,97.90
2018-11-22T22:40:25.658Z,98.00
2018-11-22T22:42:54.471Z,98.40
2018-11-22T22:45:23.288Z,98.70
2018-11-22T22:47:51.550Z,98.30
2018-11-22T22:50:21.442Z,98.60
2018-11-22T22:52:50.476Z,99.20
2018-11-22T22:55:18.237Z,99.40
2018-11-22T22:57:45.998Z,98.90
2018-11-22T23:00:22.314Z,99.50
2018-11-22T23:02:52.294Z,99.80
2018-11-22T23:05:20.653Z,99.70
2018-11-22T23:07:48.473Z,99.90
2018-11-22T23:10:16.880Z,99.70
2018-11-22T23:12:44.647Z,99.90
2018-11-22T23:15:14.455Z,99.80
2018-11-22T23:17:42.522Z,99.90
2018-11-22T23:20:14.715Z,99.90
2018-11-22T23:22:42.984Z,99.90
2018-11-22T23:25:11.703Z,99.90
2018-11-22T23:27:39.835Z,99.90
2018-11-22T23:30:18.334Z,99.90
2018-11-22T23:32:47.133Z,99.90
2018-11-22T23:35:15.122Z,99.90
2018-11-22T23:37:43.165Z,99.90
2018-11-22T23:40:12.805Z,99.90
2018-11-22T23:42:40.858Z,99.90
2018-11-22T23:45:10.215Z,99.90
2018-11-22T23:47:38.533Z,99.90
2018-11-22T23:50:09.193Z,99.90
2018-11-22T23:52:36.930Z,99.90
2018-11-22T23:55:05.322Z,99.90
2018-11-22T23:57:33.023Z,99.90
